Kingsville Naval Air Station
KNQI : now visible

Airfield :











YOU CAN JOIN US ON...

 
LOGIN :

Register | Disclaimer

   EN    FR    IT 

 









Legend :    VFR   Marginal VFR   IFR   Intensive IFR   Very Intensive IFR
Visi :
Ceiling :
>= 8 km
>= 3000ft
5 to 8 km
1000 to 3000 ft
1500m to 5 km
500 to 1000 ft
800 to 1500m
200 to 500 ft
< 800m
< 200 ft
Symbols :   Thunderstorms  Fog  Heavy snow  Heavy precipitations  Wind > 20 kt






- Airport Elevation : 50 ft


KNQI - Kingsville Naval Air Station

CURRENT METAR :
  • 171756Z 15015KT 10SM BKN035 31/23 A2979 RMK AO2 SLP084 T03060233 10306 20250 58017 $

EXPIRED METARs :
  • 171656Z 17016KT 10SM BKN035 31/23 A2982 RMK AO2 SLP094 T03060233 $
  • 171634Z COR 16017KT 10SM SCT015 BKN025 29/24 A2982 RMK AO2 T02940239 $
  • 171556Z 15018KT 10SM SCT015 BKN025 29/24 A2983 RMK AO2 SLP097 T02940239 $

TAF TAF KNQI
Valid from the 17 at 15:00 until the 18 at 15:00 UTC


1715/1815 15016G24KT 9999 BKN020 QNH2978INS
FM171800 12018G26KT 9999 BKN030 QNH2970INS
TEMPO 1718/1800 12020G28KT SCT040
FM180000 12017G25KT 9999 SCT020 QNH2970INS
FM180300 15014KT 9999 SCT008 BKN012 QNH2972INS
FM181000 15010KT 8000 BR VCSH BKN006 OVC010 QNH2972INS T33/1720Z T25/1811Z FN20061
KZHU FIR / North America



MET'MAP, your aeronautical weather chart ! - Copyright ORBIFLY December 2007 - Disclaimer

ORBIFLY MET'MAP TEAM :

Programming & Development : Alexandra Zaïnal
Concept & original design : Baudouin d'Aumeries
Assistance for programming : Marc-Olivier Méhu
Technical & hardware support : Manuel Goepfert

Contact : metmap@orbifly.com




SOURCES & CREDITS :

   NOAA       Earth
Advisory